IL94 weather

Hoblit Farms Airport
Atlanta, Illinois, United States

Public forecast

Using degrees Fahrenheit for public forecast. Weather courtesy of forecast.io.

METAR (pilot weather report)

Closest report is Logan County Airport, 5.9 nm (10.8 km) SW. Retrieved 2019/06/16 02:35 UTC (0 seconds ago):

KAAA 160235Z AUTO 16003KT 7SM CLR 22/21 A2975 RMK AO2 LTG DSNT NW T02170212

TAF (pilot weather forecast)

Forecast is more than 12 hours old.

Closest forecast is Central Illinois Regional Airport at Bloomington-Normal, 21.2 nm (39.3 km) NE. Retrieved 2019/06/15 00:24 UTC (1 day ago):

TAF KBMI 152321Z 1600/1624 22007KT P6SM SCT009 OVC012 TEMPO 1600/1602 BKN009 FM160500 VRB04KT 5SM SHRA BR VCTS BKN025CB TEMPO 1605/1607 2SM -TSRA BKN012 OVC025CB FM160900 15003KT P6SM VCSH OVC006 FM161800 30005KT P6SM BKN018 FM162100 01004KT P6SM VCSH SCT025 BKN250